createdAt,value
2018-04-30T00:01:53.980Z,18.73
2018-04-30T00:04:21.452Z,17.77
2018-04-30T00:06:48.908Z,16.95
2018-04-30T00:09:16.352Z,17.45
2018-04-30T00:11:43.813Z,17.10
2018-04-30T00:14:11.253Z,18.58
2018-04-30T00:16:38.700Z,17.80
2018-04-30T00:19:06.168Z,16.62
2018-04-30T00:21:33.592Z,15.98
2018-04-30T00:24:01.808Z,15.85
2018-04-30T00:26:29.273Z,15.60
2018-04-30T00:28:56.725Z,15.77
2018-04-30T00:31:24.173Z,15.95
2018-04-30T00:33:51.644Z,15.00
2018-04-30T00:36:19.086Z,15.60
2018-04-30T00:38:46.525Z,14.60
2018-04-30T00:41:14.013Z,14.85
2018-04-30T00:43:41.468Z,14.50
2018-04-30T00:46:08.920Z,14.15
2018-04-30T00:48:36.365Z,14.18
2018-04-30T00:51:03.837Z,13.23
2018-04-30T00:53:31.300Z,14.40
2018-04-30T00:55:58.785Z,13.13
2018-04-30T00:58:26.211Z,13.13
2018-04-30T01:00:53.666Z,13.25
2018-04-30T01:03:21.223Z,13.52
2018-04-30T01:05:48.639Z,12.70
2018-04-30T01:08:16.088Z,13.20
2018-04-30T01:10:43.592Z,12.20
2018-04-30T01:13:11.045Z,13.40
2018-04-30T01:15:38.500Z,12.93
2018-04-30T01:18:05.955Z,12.63
2018-04-30T01:20:33.424Z,13.20
2018-04-30T01:23:00.953Z,12.13
2018-04-30T01:25:28.380Z,13.30
2018-04-30T01:27:56.589Z,12.80
2018-04-30T01:30:24.041Z,12.73
2018-04-30T01:32:51.523Z,12.77
2018-04-30T01:35:18.960Z,12.70
2018-04-30T01:37:46.429Z,11.75
2018-04-30T01:40:13.888Z,12.88
2018-04-30T01:42:41.345Z,12.65
2018-04-30T01:45:08.802Z,13.60
2018-04-30T01:47:36.244Z,13.38
2018-04-30T01:50:03.697Z,13.43
2018-04-30T01:52:31.176Z,14.20
2018-04-30T01:54:58.637Z,13.55
2018-04-30T01:57:26.069Z,15.07
2018-04-30T01:59:53.500Z,14.00
2018-04-30T02:02:20.943Z,14.05
2018-04-30T02:04:48.452Z,14.00
2018-04-30T02:07:15.901Z,13.88
2018-04-30T02:09:43.332Z,14.23
2018-04-30T02:12:10.780Z,14.10
2018-04-30T02:14:38.212Z,14.60
2018-04-30T02:17:06.527Z,14.50
2018-04-30T02:19:33.948Z,13.50
2018-04-30T02:22:02.153Z,14.68
2018-04-30T02:24:29.593Z,13.70
2018-04-30T02:26:57.089Z,13.93
2018-04-30T02:29:24.528Z,14.02
2018-04-30T02:31:51.981Z,14.40
2018-04-30T02:34:19.407Z,14.30
2018-04-30T02:36:47.620Z,14.50
2018-04-30T02:39:15.088Z,14.40
2018-04-30T02:41:42.520Z,13.62
2018-04-30T02:44:09.956Z,15.00
2018-04-30T02:46:37.540Z,14.90
2018-04-30T02:49:05.058Z,14.45
2018-04-30T02:51:33.374Z,15.20
2018-04-30T02:54:00.840Z,14.45
2018-04-30T02:56:28.388Z,14.87
2018-04-30T02:58:55.945Z,14.57
2018-04-30T03:01:23.320Z,16.50
2018-04-30T03:03:50.762Z,15.65
2018-04-30T03:06:18.207Z,15.60
2018-04-30T03:08:45.661Z,15.00
2018-04-30T03:11:13.173Z,15.05
2018-04-30T03:13:40.703Z,15.33
2018-04-30T03:16:08.150Z,15.85
2018-04-30T03:18:35.605Z,15.55
2018-04-30T03:21:03.080Z,15.35
2018-04-30T03:23:30.521Z,16.20
2018-04-30T03:25:57.966Z,16.30
2018-04-30T03:28:25.419Z,16.10
2018-04-30T03:30:52.869Z,15.63
2018-04-30T03:33:20.297Z,15.50
2018-04-30T03:35:48.492Z,15.60
2018-04-30T03:38:15.950Z,14.80
2018-04-30T03:40:43.444Z,17.15
2018-04-30T03:43:10.897Z,15.70
2018-04-30T03:45:38.336Z,16.10
2018-04-30T03:48:05.820Z,16.40
2018-04-30T03:50:33.269Z,15.65
2018-04-30T03:53:00.716Z,16.30
2018-04-30T03:55:28.153Z,16.42
2018-04-30T03:57:55.628Z,16.20
2018-04-30T04:00:34.897Z,16.67
2018-04-30T04:03:14.269Z,17.33
2018-04-30T04:05:53.748Z,16.55
2018-04-30T04:08:21.192Z,17.00
2018-04-30T04:10:48.716Z,16.60
2018-04-30T04:13:16.155Z,16.80
2018-04-30T04:15:44.372Z,16.75
2018-04-30T04:18:11.856Z,16.93
2018-04-30T04:20:39.296Z,16.87
2018-04-30T04:23:06.749Z,17.12
2018-04-30T04:25:34.184Z,16.52
2018-04-30T04:28:01.669Z,17.67
2018-04-30T04:30:29.106Z,16.15
2018-04-30T04:32:56.552Z,17.50
2018-04-30T04:35:23.981Z,18.10
2018-04-30T04:37:52.192Z,17.77
2018-04-30T04:40:19.672Z,17.33
2018-04-30T04:42:47.126Z,18.47
2018-04-30T04:45:14.564Z,17.92
2018-04-30T04:47:42.038Z,18.10
2018-04-30T04:50:09.501Z,18.75
2018-04-30T04:52:37.040Z,17.80
2018-04-30T04:55:04.497Z,18.10
2018-04-30T04:57:31.941Z,18.77
2018-04-30T04:59:59.385Z,18.30
2018-04-30T05:02:26.848Z,18.77
2018-04-30T05:04:55.044Z,17.58
2018-04-30T05:07:22.528Z,18.48
2018-04-30T05:09:49.973Z,19.13
2018-04-30T05:12:17.422Z,18.20
2018-04-30T05:14:44.869Z,18.23
2018-04-30T05:17:12.308Z,18.15
2018-04-30T05:19:39.756Z,17.87
2018-04-30T05:22:07.184Z,18.25
2018-04-30T05:24:35.403Z,17.80
2018-04-30T05:27:02.877Z,18.70
2018-04-30T05:29:30.318Z,18.42
2018-04-30T05:31:57.788Z,18.25
2018-04-30T05:34:25.236Z,17.87
2018-04-30T05:36:52.689Z,17.42
2018-04-30T05:39:20.160Z,18.85
2018-04-30T05:41:47.614Z,19.05
2018-04-30T05:44:15.064Z,18.48
2018-04-30T05:46:42.504Z,18.12
2018-04-30T05:49:09.949Z,17.58
2018-04-30T05:51:37.433Z,19.40
2018-04-30T05:54:04.897Z,18.40
2018-04-30T05:56:32.336Z,18.00
2018-04-30T05:58:59.791Z,18.00
2018-04-30T06:01:27.214Z,17.95
2018-04-30T06:03:55.432Z,18.00
2018-04-30T06:06:22.853Z,18.02
2018-04-30T06:08:50.303Z,19.62
2018-04-30T06:11:17.754Z,18.40
2018-04-30T06:13:45.960Z,18.10
2018-04-30T06:16:13.406Z,18.90
2018-04-30T06:18:40.849Z,18.12
2018-04-30T06:21:08.431Z,19.40
2018-04-30T06:23:35.864Z,20.30
2018-04-30T06:26:03.346Z,20.05
2018-04-30T06:28:30.784Z,21.30
2018-04-30T06:30:58.285Z,21.08
2018-04-30T06:33:25.741Z,21.80
2018-04-30T06:35:53.227Z,21.08
2018-04-30T06:40:55.558Z,21.92
2018-04-30T06:43:23.116Z,20.60
2018-04-30T06:45:50.528Z,20.35
2018-04-30T06:48:18.951Z,21.42
2018-04-30T06:50:46.420Z,20.62
2018-04-30T06:53:13.868Z,21.52
2018-04-30T06:55:41.340Z,21.10
2018-04-30T06:58:08.785Z,20.92
2018-04-30T07:00:36.531Z,20.80
2018-04-30T07:03:04.100Z,20.33
2018-04-30T07:05:31.533Z,20.50
2018-04-30T07:07:58.973Z,19.62
2018-04-30T07:10:27.189Z,19.55
2018-04-30T07:12:54.846Z,20.20
2018-04-30T07:15:22.281Z,20.60
2018-04-30T07:17:49.715Z,20.15
2018-04-30T07:20:17.936Z,19.90
2018-04-30T07:22:45.356Z,20.67
2018-04-30T07:25:13.573Z,21.02
2018-04-30T07:27:41.196Z,20.25
2018-04-30T07:30:08.614Z,20.67
2018-04-30T07:32:36.055Z,20.70
2018-04-30T07:35:03.524Z,19.30
2018-04-30T07:37:31.664Z,20.40
2018-04-30T07:39:59.350Z,20.37
2018-04-30T07:42:27.826Z,20.77
2018-04-30T07:44:56.211Z,20.10
2018-04-30T07:47:23.637Z,19.62
2018-04-30T07:49:52.282Z,21.30
2018-04-30T07:52:20.293Z,19.85
2018-04-30T07:54:47.771Z,20.10
2018-04-30T07:57:15.296Z,20.67
2018-04-30T07:59:42.648Z,19.92
2018-04-30T08:02:10.091Z,20.98
2018-04-30T08:04:38.619Z,21.58
2018-04-30T08:07:06.280Z,21.60
2018-04-30T08:09:33.806Z,20.75
2018-04-30T08:12:01.437Z,20.10
2018-04-30T08:14:28.896Z,20.90
2018-04-30T08:16:57.172Z,20.33
2018-04-30T08:19:24.692Z,21.15
2018-04-30T08:21:52.113Z,21.42
2018-04-30T08:24:19.553Z,21.17
2018-04-30T08:26:46.996Z,22.37
2018-04-30T08:29:14.474Z,20.83
2018-04-30T08:31:41.940Z,21.12
2018-04-30T08:34:09.393Z,21.12
2018-04-30T08:36:36.880Z,21.95
2018-04-30T08:39:04.309Z,21.27
2018-04-30T08:41:31.778Z,21.52
2018-04-30T08:43:59.218Z,21.17
2018-04-30T08:46:26.657Z,21.90
2018-04-30T08:48:54.224Z,22.75
2018-04-30T08:51:21.658Z,22.83
2018-04-30T08:53:49.157Z,44.60
2018-04-30T08:56:16.613Z,129.90
2018-04-30T08:58:44.068Z,30.17
2018-04-30T09:01:11.608Z,29.87
2018-04-30T09:03:39.063Z,24.45
2018-04-30T09:06:06.504Z,22.37
2018-04-30T09:08:33.961Z,22.90
2018-04-30T09:11:01.421Z,22.98
2018-04-30T09:13:28.867Z,22.15
2018-04-30T09:15:56.377Z,22.33
2018-04-30T09:18:23.816Z,22.00
2018-04-30T09:20:51.269Z,22.20
2018-04-30T09:23:18.818Z,23.03
2018-04-30T09:25:46.246Z,24.52
2018-04-30T09:28:13.796Z,26.20
2018-04-30T09:30:41.177Z,80.75
2018-04-30T09:33:08.617Z,49.05
2018-04-30T09:35:36.059Z,39.42
2018-04-30T09:38:04.260Z,23.38
2018-04-30T09:40:31.726Z,22.05
2018-04-30T09:42:59.208Z,21.60
2018-04-30T09:45:26.660Z,22.87
2018-04-30T09:47:54.116Z,22.48
2018-04-30T09:50:21.655Z,22.25
2018-04-30T09:52:49.076Z,22.70
2018-04-30T09:55:17.389Z,23.70
2018-04-30T09:57:44.919Z,22.35
2018-04-30T10:00:12.408Z,22.10
2018-04-30T10:02:39.858Z,22.33
2018-04-30T10:05:07.288Z,22.40
2018-04-30T10:07:35.495Z,23.00
2018-04-30T10:10:02.972Z,24.50
2018-04-30T10:12:30.424Z,23.70
2018-04-30T10:14:57.959Z,24.63
2018-04-30T10:17:25.385Z,24.57
2018-04-30T10:19:53.692Z,24.60
2018-04-30T10:22:21.249Z,23.87
2018-04-30T10:24:48.674Z,24.95
2018-04-30T10:27:16.954Z,25.37
2018-04-30T10:29:45.174Z,26.30
2018-04-30T10:32:12.636Z,27.58
2018-04-30T10:34:40.066Z,25.77
2018-04-30T10:37:07.516Z,26.70
2018-04-30T10:39:35.013Z,25.90
2018-04-30T10:42:02.447Z,24.98
2018-04-30T10:44:29.892Z,24.48
2018-04-30T10:46:57.336Z,23.80
2018-04-30T10:49:24.764Z,22.40
2018-04-30T10:51:52.969Z,23.93
2018-04-30T10:54:20.418Z,23.58
2018-04-30T10:56:47.911Z,23.07
2018-04-30T10:59:15.388Z,23.60
2018-04-30T11:01:42.841Z,23.33
2018-04-30T11:04:10.285Z,24.27
2018-04-30T11:06:37.737Z,24.25
2018-04-30T11:09:05.275Z,23.67
2018-04-30T11:11:32.703Z,25.20
2018-04-30T11:14:00.200Z,25.40
2018-04-30T11:16:27.652Z,25.55
2018-04-30T11:18:55.099Z,24.85
2018-04-30T11:21:22.531Z,23.35
2018-04-30T11:23:50.011Z,23.00
2018-04-30T11:26:17.673Z,23.00
2018-04-30T11:28:45.093Z,25.58
2018-04-30T11:31:13.305Z,24.40
2018-04-30T11:33:40.780Z,26.23
2018-04-30T11:36:08.296Z,24.75
2018-04-30T11:38:35.773Z,27.00
2018-04-30T11:41:03.208Z,27.77
2018-04-30T11:43:30.661Z,29.50
2018-04-30T11:45:58.867Z,33.03
2018-04-30T11:48:26.295Z,30.15
2018-04-30T11:50:53.796Z,32.33
2018-04-30T11:53:21.228Z,33.55
2018-04-30T11:55:48.675Z,34.10
2018-04-30T11:58:16.142Z,34.17
2018-04-30T12:00:43.645Z,34.33
2018-04-30T12:03:11.160Z,33.15
2018-04-30T12:05:38.615Z,33.20
2018-04-30T12:08:06.044Z,33.72
2018-04-30T12:10:34.248Z,32.20
2018-04-30T12:13:01.721Z,32.38
2018-04-30T12:15:29.169Z,33.08
2018-04-30T12:17:56.645Z,33.70
2018-04-30T12:20:24.069Z,32.38
2018-04-30T12:22:51.525Z,31.25
2018-04-30T12:25:18.973Z,31.60
2018-04-30T12:27:46.438Z,30.48
2018-04-30T12:30:13.876Z,29.08
2018-04-30T12:32:41.325Z,28.77
2018-04-30T12:35:09.540Z,29.30
2018-04-30T12:37:37.001Z,27.50
2018-04-30T12:40:04.446Z,26.30
2018-04-30T12:42:32.098Z,25.15
2018-04-30T12:44:59.553Z,23.85
2018-04-30T12:47:26.989Z,17.93
2018-04-30T12:49:54.523Z,15.23
2018-04-30T12:52:21.965Z,12.50
2018-04-30T12:54:49.392Z,12.20
2018-04-30T12:57:16.864Z,12.93
2018-04-30T12:59:44.394Z,10.90
2018-04-30T13:02:11.892Z,9.90
2018-04-30T13:04:39.324Z,9.35
2018-04-30T13:07:06.765Z,10.30
2018-04-30T13:09:34.208Z,9.40
2018-04-30T13:12:01.659Z,9.68
2018-04-30T13:14:29.872Z,9.38
2018-04-30T13:16:57.312Z,9.60
2018-04-30T13:19:24.872Z,10.50
2018-04-30T13:21:52.325Z,11.20
2018-04-30T13:24:19.885Z,11.40
2018-04-30T13:26:47.308Z,11.57
2018-04-30T13:29:15.569Z,11.00
2018-04-30T13:31:43.798Z,11.60
2018-04-30T13:34:11.346Z,10.82
2018-04-30T13:36:38.780Z,10.85
2018-04-30T13:39:06.256Z,11.20
2018-04-30T13:41:33.714Z,11.32
2018-04-30T13:44:01.175Z,10.70
2018-04-30T13:46:28.602Z,9.70
2018-04-30T13:48:56.043Z,9.98
2018-04-30T13:51:24.280Z,9.70
2018-04-30T13:53:51.738Z,9.57
2018-04-30T13:56:19.206Z,10.10
2018-04-30T13:58:46.692Z,9.23
2018-04-30T14:01:14.899Z,8.93
2018-04-30T14:03:42.320Z,7.57
2018-04-30T14:06:10.561Z,7.10
2018-04-30T14:08:38.091Z,6.40
2018-04-30T14:11:05.543Z,6.50
2018-04-30T14:13:33.091Z,6.50
2018-04-30T14:16:00.637Z,7.62
2018-04-30T14:18:28.014Z,6.90
2018-04-30T14:20:55.433Z,6.30
2018-04-30T14:23:23.637Z,4.90
2018-04-30T14:25:51.076Z,4.75
2018-04-30T14:28:19.376Z,6.50
2018-04-30T14:30:46.877Z,4.80
2018-04-30T14:33:14.341Z,4.35
2018-04-30T14:35:41.760Z,3.00
2018-04-30T14:38:09.189Z,2.90
2018-04-30T14:40:37.396Z,3.13
2018-04-30T14:43:04.908Z,3.53
2018-04-30T14:45:32.423Z,2.90
2018-04-30T14:47:59.835Z,2.70
2018-04-30T14:50:28.155Z,2.75
2018-04-30T14:52:55.571Z,2.90
2018-04-30T14:55:23.797Z,2.80
2018-04-30T14:57:51.343Z,2.70
2018-04-30T15:00:18.812Z,2.70
2018-04-30T15:02:46.272Z,2.30
2018-04-30T15:05:13.696Z,2.42
2018-04-30T15:07:41.145Z,2.03
2018-04-30T15:10:09.340Z,2.65
2018-04-30T15:12:36.838Z,2.28
2018-04-30T15:15:04.269Z,2.40
2018-04-30T15:17:31.696Z,2.30
2018-04-30T15:19:59.140Z,2.40
2018-04-30T15:22:26.576Z,2.30
2018-04-30T15:24:54.819Z,2.28
2018-04-30T15:27:22.267Z,2.30
2018-04-30T15:29:49.715Z,2.35
2018-04-30T15:32:17.136Z,2.20
2018-04-30T15:34:45.443Z,2.70
2018-04-30T15:37:12.895Z,1.80
2018-04-30T15:39:40.456Z,1.70
2018-04-30T15:42:07.916Z,2.00
2018-04-30T15:44:36.290Z,2.03
2018-04-30T15:47:03.716Z,2.37
2018-04-30T15:49:32.038Z,2.58
2018-04-30T15:51:59.451Z,2.80
2018-04-30T15:54:26.889Z,2.00
2018-04-30T15:56:54.398Z,2.00
2018-04-30T15:59:21.848Z,1.95
2018-04-30T16:01:49.262Z,2.30
2018-04-30T16:04:17.495Z,1.90
2018-04-30T16:06:45.040Z,2.28
2018-04-30T16:09:12.468Z,2.83
2018-04-30T16:11:40.049Z,1.50
2018-04-30T16:14:07.612Z,1.60
2018-04-30T16:16:34.982Z,1.70
2018-04-30T16:19:02.521Z,1.77
2018-04-30T16:21:30.000Z,1.65
2018-04-30T16:23:57.432Z,1.60
2018-04-30T16:26:24.891Z,1.87
2018-04-30T16:28:52.320Z,1.65
2018-04-30T16:31:20.544Z,2.08
2018-04-30T16:33:47.981Z,2.10
2018-04-30T16:36:15.534Z,1.45
2018-04-30T16:38:42.954Z,2.00
2018-04-30T16:41:11.164Z,2.80
2018-04-30T16:43:38.611Z,2.12
2018-04-30T16:46:06.056Z,2.80
2018-04-30T16:48:33.489Z,2.40
2018-04-30T16:51:01.724Z,1.90
2018-04-30T16:53:29.153Z,1.50
2018-04-30T16:55:56.584Z,4.20
2018-04-30T16:58:24.894Z,2.50
2018-04-30T17:00:52.355Z,2.80
2018-04-30T17:03:19.843Z,2.70
2018-04-30T17:05:47.366Z,3.10
2018-04-30T17:08:14.801Z,3.10
2018-04-30T17:10:42.307Z,2.20
2018-04-30T17:13:09.738Z,3.00
2018-04-30T17:15:37.169Z,4.22
2018-04-30T17:18:04.626Z,2.92
2018-04-30T17:20:32.834Z,2.20
2018-04-30T17:23:00.273Z,2.12
2018-04-30T17:25:27.739Z,1.90
2018-04-30T17:27:55.192Z,2.40
2018-04-30T17:30:22.679Z,2.50
2018-04-30T17:32:50.129Z,2.10
2018-04-30T17:35:17.592Z,3.80
2018-04-30T17:37:45.026Z,2.78
2018-04-30T17:40:12.468Z,4.20
2018-04-30T17:42:39.889Z,4.97
2018-04-30T17:45:08.125Z,4.87
2018-04-30T17:47:35.559Z,8.40
2018-04-30T17:50:02.984Z,3.75
2018-04-30T17:52:30.436Z,2.80
2018-04-30T17:54:58.677Z,3.00
2018-04-30T17:57:26.099Z,1.90
2018-04-30T17:59:53.549Z,2.85
2018-04-30T18:02:21.741Z,2.33
2018-04-30T18:04:49.180Z,2.80
2018-04-30T18:07:16.623Z,3.03
2018-04-30T18:09:44.806Z,3.07
2018-04-30T18:12:12.285Z,9.40
2018-04-30T18:14:40.440Z,4.28
2018-04-30T18:17:07.880Z,3.80
2018-04-30T18:19:35.309Z,3.60
2018-04-30T18:22:03.565Z,3.58
2018-04-30T18:24:30.955Z,3.12
2018-04-30T18:26:59.155Z,3.00
2018-04-30T18:29:26.580Z,4.78
2018-04-30T18:31:54.793Z,3.20
2018-04-30T18:34:22.244Z,2.75
2018-04-30T18:36:49.664Z,2.72
2018-04-30T18:39:17.879Z,2.00
2018-04-30T18:41:45.304Z,2.22
2018-04-30T18:44:12.789Z,2.00
2018-04-30T18:46:40.230Z,1.92
2018-04-30T18:49:07.716Z,2.17
2018-04-30T18:51:35.159Z,2.85
2018-04-30T18:54:02.614Z,2.40
2018-04-30T18:56:30.084Z,1.90
2018-04-30T18:58:57.536Z,2.12
2018-04-30T19:01:25.186Z,2.00
2018-04-30T19:03:52.600Z,2.22
2018-04-30T19:06:20.839Z,2.72
2018-04-30T19:08:48.278Z,2.30
2018-04-30T19:11:15.736Z,2.70
2018-04-30T19:13:43.190Z,3.10
2018-04-30T19:16:10.644Z,3.00
2018-04-30T19:18:38.098Z,2.78
2018-04-30T19:21:06.345Z,4.45
2018-04-30T19:23:33.856Z,4.40
2018-04-30T19:26:02.147Z,9.00
2018-04-30T19:28:29.630Z,5.05
2018-04-30T19:30:57.163Z,3.05
2018-04-30T19:33:24.579Z,2.42
2018-04-30T19:35:52.779Z,2.72
2018-04-30T19:38:20.249Z,2.60
2018-04-30T19:40:47.704Z,2.85
2018-04-30T19:43:15.133Z,2.78
2018-04-30T19:45:42.576Z,2.75
2018-04-30T19:48:10.996Z,2.80
2018-04-30T19:50:38.480Z,3.00
2018-04-30T19:53:05.908Z,2.50
2018-04-30T19:55:33.469Z,2.90
2018-04-30T19:58:00.889Z,2.90
2018-04-30T20:00:29.120Z,3.10
2018-04-30T20:02:56.557Z,3.20
2018-04-30T20:05:24.024Z,3.40
2018-04-30T20:07:51.467Z,4.50
2018-04-30T20:10:18.923Z,5.40
2018-04-30T20:12:46.361Z,4.97
2018-04-30T20:15:13.796Z,3.25
2018-04-30T20:17:41.997Z,3.70
2018-04-30T20:20:09.569Z,3.60
2018-04-30T20:22:37.005Z,3.00
2018-04-30T20:25:04.576Z,2.90
2018-04-30T20:27:32.760Z,2.67
2018-04-30T20:30:00.279Z,4.30
2018-04-30T20:32:28.590Z,4.50
2018-04-30T20:34:56.049Z,4.90
2018-04-30T20:37:25.136Z,3.90
2018-04-30T20:39:52.567Z,3.58
2018-04-30T20:42:20.792Z,3.28
2018-04-30T20:44:48.245Z,3.00
2018-04-30T20:47:15.679Z,4.00
2018-04-30T20:49:43.164Z,4.28
2018-04-30T20:52:10.631Z,4.25
2018-04-30T20:54:38.154Z,3.90
2018-04-30T20:57:05.582Z,3.70
2018-04-30T20:59:33.782Z,3.30
2018-04-30T21:02:01.257Z,4.70
2018-04-30T21:04:28.712Z,6.53
2018-04-30T21:06:56.160Z,5.43
2018-04-30T21:09:23.588Z,4.22
2018-04-30T21:11:51.024Z,4.85
2018-04-30T21:14:19.269Z,5.53
2018-04-30T21:16:46.728Z,5.37
2018-04-30T21:19:14.165Z,4.12
2018-04-30T21:21:41.606Z,3.50
2018-04-30T21:24:09.170Z,3.90
2018-04-30T21:26:36.643Z,3.42
2018-04-30T21:29:04.081Z,3.22
2018-04-30T21:31:31.523Z,3.30
2018-04-30T21:33:58.948Z,3.12
2018-04-30T21:36:27.268Z,3.20
2018-04-30T21:38:54.684Z,3.10
2018-04-30T21:41:22.893Z,3.12
2018-04-30T21:43:50.351Z,2.80
2018-04-30T21:46:17.760Z,3.00
2018-04-30T21:48:45.962Z,3.42
2018-04-30T21:51:13.397Z,3.12
2018-04-30T21:53:41.637Z,3.00
2018-04-30T21:56:09.033Z,3.50
2018-04-30T21:58:37.351Z,3.30
2018-04-30T22:01:04.825Z,4.40
2018-04-30T22:03:32.265Z,3.33
2018-04-30T22:05:59.696Z,3.50
2018-04-30T22:08:27.175Z,3.60
2018-04-30T22:10:54.584Z,2.60
2018-04-30T22:13:22.797Z,3.17
2018-04-30T22:15:50.219Z,2.00
2018-04-30T22:18:18.428Z,2.00
2018-04-30T22:20:45.884Z,2.12
2018-04-30T22:23:13.321Z,1.90
2018-04-30T22:25:40.747Z,2.50
2018-04-30T22:28:08.189Z,1.83
2018-04-30T22:30:35.628Z,2.20
2018-04-30T22:33:03.091Z,3.65
2018-04-30T22:35:30.508Z,2.58
2018-04-30T22:37:57.969Z,1.98
2018-04-30T22:40:25.398Z,2.00
2018-04-30T22:42:53.603Z,2.00
2018-04-30T22:45:21.100Z,2.00
2018-04-30T22:47:48.538Z,2.10
2018-04-30T22:50:15.993Z,2.60
2018-04-30T22:52:43.430Z,2.20
2018-04-30T22:55:10.868Z,2.40
2018-04-30T22:57:38.296Z,2.30
2018-04-30T23:00:06.500Z,2.22
2018-04-30T23:02:33.941Z,3.00
2018-04-30T23:05:02.165Z,1.70
2018-04-30T23:07:29.705Z,1.90
2018-04-30T23:09:57.188Z,2.00
2018-04-30T23:12:24.616Z,1.83
2018-04-30T23:14:52.049Z,2.00
2018-04-30T23:17:19.515Z,1.60
2018-04-30T23:19:46.969Z,1.60
2018-04-30T23:22:15.260Z,1.90
2018-04-30T23:24:42.732Z,1.80
2018-04-30T23:27:10.172Z,1.50
2018-04-30T23:29:37.642Z,1.98
2018-04-30T23:32:05.085Z,1.80
2018-04-30T23:34:32.557Z,2.00
2018-04-30T23:37:00.002Z,1.98
2018-04-30T23:39:27.454Z,2.05
2018-04-30T23:41:54.889Z,1.70
2018-04-30T23:44:22.385Z,1.90
2018-04-30T23:46:49.822Z,2.58
2018-04-30T23:49:17.283Z,2.97
2018-04-30T23:51:44.752Z,1.50
2018-04-30T23:54:12.208Z,1.77
2018-04-30T23:56:39.649Z,1.90
2018-04-30T23:59:07.092Z,1.50
